Aérodrome :
LOGIN :

S'inscrire | Disclaimer

   EN    FR    IT 

 










Légende :    VFR   VFR Marginal   IFR   IFR Intensif   IFR Très Intensif
Visi : 
Plafond : 
>= 8 km
>= 3000ft
5 à 8 km
1000 à 3000 ft
1500m à 5 km
500 à 1000 ft
800 à 1500m
200 à 500 ft
< 800m
< 200 ft
Symboles :   Orages  Brouillard  Fortes neiges  Fortes précipitations  Vent > 20 kt
SIGMETs :   Divers  Orages  Givrage  Turbulence  Onde Orograph.  Cendres Volcan.







- Altitude de l'aérodrome : 247 ft
- Code IATA : BLL


EKBI - Billund

DERNIER METAR :
  • 191250Z AUTO 21009KT 9999NDV FEW017/// OVC020/// 19/15 Q1016

METARs EXPIRÉS :
  • 191220Z AUTO 22009KT 190V250 9999NDV OVC016/// 19/15 Q1016
  • 191150Z AUTO 22009KT 190V250 9999NDV OVC022/// 19/16 Q1017
  • 191120Z AUTO 22008KT 190V250 9999NDV OVC031/// 19/15 Q1017
  • 191050Z AUTO 22011KT 190V250 9999NDV OVC017/// 19/16 Q1017
  • 191020Z AUTO 22011KT 9999NDV OVC017/// 19/16 Q1017

TAF TAF EKBI
Valide du 19 à 12h jusqu'au 20 à 12h UTC


191109Z 1912/2012 22010KT 9999 SCT015 BKN030
TEMPO 1912/1918 -RADZ BKN012
TEMPO 1918/2005 3000 RADZ BR BKN008
BECMG 2002/2005 30012KT
Pas de NOTAMs connus pour ce terrain.



MET'MAP, la Météo Aéronautique d'un coup d'oeil ! - Copyright ORBIFLY Décembre 2007 - Disclaimer

ORBIFLY MET'MAP TEAM :

Programmation & Développement : Alexandra Zaïnal
Conception & Développement : Baudouin d'Aumeries
Co-Programmation & Développement : Marc-Olivier Méhu
Soutien technique & logistique : Manuel Goepfert

Contact : metmap@orbifly.com




SOURCES & CREDITS :

   NOAA